Terminal Aerodrome Forecast
Issued by NWS Twin Cities, MN

Home | Current Version | Previous Version | Text Only | Print | Product List | Glossary Off
Versions: 1 2 3 4 5 6 7 8 9 10 11 12 13 14 15 16 17 18 19 20 21 22 23 24 25

000
FTUS43 KMPX 241100
TAFMSP
TAF
KMSP 241125Z 2412/2518 13012KT P6SM VCTS BKN015 OVC030CB
     FM241300 14012KT P6SM BKN020 BKN080
     FM241700 17013G20KT P6SM SCT100
     FM250200 20008KT P6SM VCTS SCT030CB BKN070 PROB30 2502/2504 3SM
      -TSRA BKN030CB
     FM250500 24005KT P6SM SCT025 BKN120
     FM251200 27006KT P6SM FEW250=

USA.gov is the U.S. government's official web portal to all federal, state and local government web resources and services.